sensor_id;sensor_type;location;lat;lon;timestamp;P1;durP1;ratioP1;P2;durP2;ratioP2
72904;SDS011;61048;52.162;4.516;2023-04-24T00:01:20;1.92;;;0.75;;
72904;SDS011;61048;52.162;4.516;2023-04-24T00:03:47;1.60;;;0.50;;
72904;SDS011;61048;52.162;4.516;2023-04-24T00:06:15;0.75;;;0.50;;
72904;SDS011;61048;52.162;4.516;2023-04-24T00:08:44;1.23;;;0.75;;
72904;SDS011;61048;52.162;4.516;2023-04-24T00:11:11;1.23;;;0.55;;
72904;SDS011;61048;52.162;4.516;2023-04-24T00:13:38;1.55;;;0.43;;
72904;SDS011;61048;52.162;4.516;2023-04-24T00:16:05;0.70;;;0.20;;
72904;SDS011;61048;52.162;4.516;2023-04-24T00:18:32;2.67;;;0.20;;
72904;SDS011;61048;52.162;4.516;2023-04-24T00:20:58;2.33;;;0.90;;
72904;SDS011;61048;52.162;4.516;2023-04-24T00:23:26;1.10;;;0.52;;
72904;SDS011;61048;52.162;4.516;2023-04-24T00:25:54;1.83;;;0.40;;
72904;SDS011;61048;52.162;4.516;2023-04-24T00:28:21;1.08;;;0.47;;
72904;SDS011;61048;52.162;4.516;2023-04-24T00:30:48;1.58;;;0.68;;
72904;SDS011;61048;52.162;4.516;2023-04-24T00:33:14;1.27;;;0.45;;
72904;SDS011;61048;52.162;4.516;2023-04-24T00:35:41;1.92;;;0.82;;
72904;SDS011;61048;52.162;4.516;2023-04-24T00:38:08;2.03;;;0.63;;
72904;SDS011;61048;52.162;4.516;2023-04-24T00:40:35;1.02;;;0.60;;
72904;SDS011;61048;52.162;4.516;2023-04-24T00:43:03;1.60;;;0.57;;
72904;SDS011;61048;52.162;4.516;2023-04-24T00:45:30;2.05;;;0.80;;
72904;SDS011;61048;52.162;4.516;2023-04-24T00:47:57;2.45;;;0.70;;
72904;SDS011;61048;52.162;4.516;2023-04-24T00:50:26;1.00;;;0.40;;
72904;SDS011;61048;52.162;4.516;2023-04-24T00:52:53;1.00;;;0.38;;
72904;SDS011;61048;52.162;4.516;2023-04-24T00:55:20;4.38;;;0.50;;
72904;SDS011;61048;52.162;4.516;2023-04-24T00:57:47;0.50;;;0.10;;
72904;SDS011;61048;52.162;4.516;2023-04-24T01:00:17;0.80;;;0.30;;
72904;SDS011;61048;52.162;4.516;2023-04-24T01:02:44;1.27;;;0.68;;
72904;SDS011;61048;52.162;4.516;2023-04-24T01:05:12;1.33;;;0.70;;
72904;SDS011;61048;52.162;4.516;2023-04-24T01:07:40;0.93;;;0.47;;
72904;SDS011;61048;52.162;4.516;2023-04-24T01:10:10;1.33;;;0.75;;
72904;SDS011;61048;52.162;4.516;2023-04-24T01:12:38;2.03;;;0.70;;
72904;SDS011;61048;52.162;4.516;2023-04-24T01:15:06;0.75;;;0.50;;
72904;SDS011;61048;52.162;4.516;2023-04-24T01:17:35;1.92;;;0.95;;
72904;SDS011;61048;52.162;4.516;2023-04-24T01:20:03;1.00;;;0.50;;
72904;SDS011;61048;52.162;4.516;2023-04-24T01:22:33;0.70;;;0.20;;
72904;SDS011;61048;52.162;4.516;2023-04-24T01:25:00;0.80;;;0.47;;
72904;SDS011;61048;52.162;4.516;2023-04-24T01:27:28;1.42;;;0.20;;
72904;SDS011;61048;52.162;4.516;2023-04-24T01:29:55;0.75;;;0.52;;
72904;SDS011;61048;52.162;4.516;2023-04-24T01:32:22;0.93;;;0.50;;
72904;SDS011;61048;52.162;4.516;2023-04-24T01:34:50;1.27;;;0.50;;
72904;SDS011;61048;52.162;4.516;2023-04-24T01:37:17;0.98;;;0.45;;
72904;SDS011;61048;52.162;4.516;2023-04-24T01:39:46;1.17;;;0.50;;
72904;SDS011;61048;52.162;4.516;2023-04-24T01:42:13;1.05;;;0.63;;
72904;SDS011;61048;52.162;4.516;2023-04-24T01:44:40;0.82;;;0.20;;
72904;SDS011;61048;52.162;4.516;2023-04-24T01:47:07;2.10;;;0.50;;
72904;SDS011;61048;52.162;4.516;2023-04-24T01:49:34;1.65;;;0.60;;
72904;SDS011;61048;52.162;4.516;2023-04-24T01:52:03;1.35;;;0.63;;
72904;SDS011;61048;52.162;4.516;2023-04-24T01:54:30;1.42;;;0.40;;
72904;SDS011;61048;52.162;4.516;2023-04-24T01:56:59;1.40;;;0.43;;
72904;SDS011;61048;52.162;4.516;2023-04-24T01:59:27;0.82;;;0.52;;
72904;SDS011;61048;52.162;4.516;2023-04-24T02:01:54;1.33;;;0.40;;
72904;SDS011;61048;52.162;4.516;2023-04-24T02:04:21;0.55;;;0.20;;
72904;SDS011;61048;52.162;4.516;2023-04-24T02:06:48;1.33;;;0.75;;
72904;SDS011;61048;52.162;4.516;2023-04-24T02:09:15;2.08;;;0.50;;
72904;SDS011;61048;52.162;4.516;2023-04-24T02:11:41;1.33;;;0.43;;
72904;SDS011;61048;52.162;4.516;2023-04-24T02:14:10;1.02;;;0.10;;
72904;SDS011;61048;52.162;4.516;2023-04-24T02:16:37;1.75;;;0.52;;
72904;SDS011;61048;52.162;4.516;2023-04-24T02:19:03;1.05;;;0.40;;
72904;SDS011;61048;52.162;4.516;2023-04-24T02:21:30;1.45;;;0.60;;
72904;SDS011;61048;52.162;4.516;2023-04-24T02:23:57;0.88;;;0.73;;
72904;SDS011;61048;52.162;4.516;2023-04-24T02:26:24;1.10;;;0.50;;
72904;SDS011;61048;52.162;4.516;2023-04-24T02:28:52;2.63;;;0.75;;
72904;SDS011;61048;52.162;4.516;2023-04-24T02:31:20;1.52;;;0.50;;
72904;SDS011;61048;52.162;4.516;2023-04-24T02:33:47;1.55;;;0.60;;
72904;SDS011;61048;52.162;4.516;2023-04-24T02:36:13;0.90;;;0.47;;
72904;SDS011;61048;52.162;4.516;2023-04-24T02:38:40;1.45;;;0.65;;
72904;SDS011;61048;52.162;4.516;2023-04-24T02:41:07;0.85;;;0.40;;
72904;SDS011;61048;52.162;4.516;2023-04-24T02:43:34;1.50;;;0.10;;
72904;SDS011;61048;52.162;4.516;2023-04-24T02:46:01;1.88;;;0.43;;
72904;SDS011;61048;52.162;4.516;2023-04-24T02:48:29;0.95;;;0.30;;
72904;SDS011;61048;52.162;4.516;2023-04-24T02:50:56;0.47;;;0.40;;
72904;SDS011;61048;52.162;4.516;2023-04-24T02:53:23;2.35;;;1.58;;
72904;SDS011;61048;52.162;4.516;2023-04-24T02:55:50;0.68;;;0.40;;
72904;SDS011;61048;52.162;4.516;2023-04-24T02:58:17;1.38;;;0.50;;
72904;SDS011;61048;52.162;4.516;2023-04-24T03:00:45;0.90;;;0.40;;
72904;SDS011;61048;52.162;4.516;2023-04-24T03:03:12;0.93;;;0.50;;
72904;SDS011;61048;52.162;4.516;2023-04-24T03:05:40;1.38;;;1.27;;
72904;SDS011;61048;52.162;4.516;2023-04-24T03:08:07;0.40;;;0.30;;
72904;SDS011;61048;52.162;4.516;2023-04-24T03:10:34;1.65;;;1.13;;
72904;SDS011;61048;52.162;4.516;2023-04-24T03:13:00;1.25;;;0.47;;
72904;SDS011;61048;52.162;4.516;2023-04-24T03:15:27;1.20;;;0.60;;
72904;SDS011;61048;52.162;4.516;2023-04-24T03:17:54;3.10;;;0.30;;
72904;SDS011;61048;52.162;4.516;2023-04-24T03:20:21;0.73;;;0.63;;
72904;SDS011;61048;52.162;4.516;2023-04-24T03:22:49;0.88;;;0.30;;
72904;SDS011;61048;52.162;4.516;2023-04-24T03:25:16;0.65;;;0.30;;
72904;SDS011;61048;52.162;4.516;2023-04-24T03:27:43;1.20;;;0.65;;
72904;SDS011;61048;52.162;4.516;2023-04-24T03:30:11;0.40;;;0.10;;
72904;SDS011;61048;52.162;4.516;2023-04-24T03:32:38;1.23;;;1.13;;
72904;SDS011;61048;52.162;4.516;2023-04-24T03:35:05;0.43;;;0.10;;
72904;SDS011;61048;52.162;4.516;2023-04-24T03:37:33;0.80;;;0.52;;
72904;SDS011;61048;52.162;4.516;2023-04-24T03:40:01;0.35;;;0.20;;
72904;SDS011;61048;52.162;4.516;2023-04-24T03:42:28;1.77;;;0.40;;
72904;SDS011;61048;52.162;4.516;2023-04-24T03:44:55;1.10;;;0.80;;
72904;SDS011;61048;52.162;4.516;2023-04-24T03:47:22;1.08;;;0.60;;
72904;SDS011;61048;52.162;4.516;2023-04-24T03:49:49;0.55;;;0.40;;
72904;SDS011;61048;52.162;4.516;2023-04-24T03:52:16;1.52;;;0.55;;
72904;SDS011;61048;52.162;4.516;2023-04-24T03:54:43;0.88;;;0.60;;
72904;SDS011;61048;52.162;4.516;2023-04-24T03:57:11;0.60;;;0.40;;
72904;SDS011;61048;52.162;4.516;2023-04-24T03:59:38;0.25;;;0.00;;
72904;SDS011;61048;52.162;4.516;2023-04-24T04:02:05;1.00;;;0.73;;
72904;SDS011;61048;52.162;4.516;2023-04-24T04:04:32;0.70;;;0.52;;
72904;SDS011;61048;52.162;4.516;2023-04-24T04:06:59;1.38;;;0.65;;
72904;SDS011;61048;52.162;4.516;2023-04-24T04:09:27;1.58;;;0.50;;
72904;SDS011;61048;52.162;4.516;2023-04-24T04:11:54;1.23;;;0.10;;
72904;SDS011;61048;52.162;4.516;2023-04-24T04:14:22;0.65;;;0.40;;
72904;SDS011;61048;52.162;4.516;2023-04-24T04:16:49;1.20;;;0.70;;
72904;SDS011;61048;52.162;4.516;2023-04-24T04:19:17;0.50;;;0.35;;
72904;SDS011;61048;52.162;4.516;2023-04-24T04:21:43;0.80;;;0.50;;
72904;SDS011;61048;52.162;4.516;2023-04-24T04:24:15;0.82;;;0.40;;
72904;SDS011;61048;52.162;4.516;2023-04-24T04:26:42;0.85;;;0.20;;
72904;SDS011;61048;52.162;4.516;2023-04-24T04:29:11;0.75;;;0.20;;
72904;SDS011;61048;52.162;4.516;2023-04-24T04:31:39;1.27;;;0.10;;
72904;SDS011;61048;52.162;4.516;2023-04-24T04:34:06;0.50;;;0.20;;
72904;SDS011;61048;52.162;4.516;2023-04-24T04:36:34;1.50;;;0.88;;
72904;SDS011;61048;52.162;4.516;2023-04-24T04:39:01;0.60;;;0.13;;
72904;SDS011;61048;52.162;4.516;2023-04-24T04:41:29;0.57;;;0.20;;
72904;SDS011;61048;52.162;4.516;2023-04-24T04:43:55;1.80;;;1.38;;
72904;SDS011;61048;52.162;4.516;2023-04-24T04:46:24;0.60;;;0.10;;
72904;SDS011;61048;52.162;4.516;2023-04-24T04:48:53;2.15;;;0.75;;
72904;SDS011;61048;52.162;4.516;2023-04-24T04:51:21;0.77;;;0.13;;
72904;SDS011;61048;52.162;4.516;2023-04-24T04:53:48;1.83;;;0.57;;
72904;SDS011;61048;52.162;4.516;2023-04-24T04:56:15;1.98;;;0.65;;
72904;SDS011;61048;52.162;4.516;2023-04-24T04:58:42;2.22;;;0.50;;
72904;SDS011;61048;52.162;4.516;2023-04-24T05:01:08;0.90;;;0.43;;
72904;SDS011;61048;52.162;4.516;2023-04-24T05:03:35;0.82;;;0.20;;
72904;SDS011;61048;52.162;4.516;2023-04-24T05:06:04;1.42;;;0.80;;
72904;SDS011;61048;52.162;4.516;2023-04-24T05:08:31;1.05;;;0.60;;
72904;SDS011;61048;52.162;4.516;2023-04-24T05:10:58;2.63;;;0.57;;
72904;SDS011;61048;52.162;4.516;2023-04-24T05:13:25;1.90;;;0.80;;
72904;SDS011;61048;52.162;4.516;2023-04-24T05:15:52;2.28;;;0.80;;
72904;SDS011;61048;52.162;4.516;2023-04-24T05:18:19;0.70;;;0.25;;
72904;SDS011;61048;52.162;4.516;2023-04-24T05:20:46;2.20;;;1.10;;
72904;SDS011;61048;52.162;4.516;2023-04-24T05:23:14;2.92;;;0.55;;
72904;SDS011;61048;52.162;4.516;2023-04-24T05:25:41;3.03;;;1.05;;
72904;SDS011;61048;52.162;4.516;2023-04-24T05:28:08;3.60;;;1.30;;
72904;SDS011;61048;52.162;4.516;2023-04-24T05:30:35;2.10;;;0.93;;
72904;SDS011;61048;52.162;4.516;2023-04-24T05:33:02;2.72;;;0.90;;
72904;SDS011;61048;52.162;4.516;2023-04-24T05:35:28;3.05;;;1.20;;
72904;SDS011;61048;52.162;4.516;2023-04-24T05:37:55;4.65;;;1.38;;
72904;SDS011;61048;52.162;4.516;2023-04-24T05:40:24;2.85;;;1.05;;
72904;SDS011;61048;52.162;4.516;2023-04-24T05:42:50;2.03;;;0.70;;
72904;SDS011;61048;52.162;4.516;2023-04-24T05:45:17;2.25;;;0.73;;
72904;SDS011;61048;52.162;4.516;2023-04-24T05:47:44;2.63;;;1.55;;
72904;SDS011;61048;52.162;4.516;2023-04-24T05:50:12;2.40;;;1.10;;
72904;SDS011;61048;52.162;4.516;2023-04-24T05:52:38;3.33;;;1.17;;
72904;SDS011;61048;52.162;4.516;2023-04-24T05:55:05;2.85;;;1.17;;
72904;SDS011;61048;52.162;4.516;2023-04-24T05:57:34;6.38;;;1.33;;
72904;SDS011;61048;52.162;4.516;2023-04-24T06:00:01;4.47;;;1.60;;
72904;SDS011;61048;52.162;4.516;2023-04-24T06:02:32;2.67;;;1.52;;
72904;SDS011;61048;52.162;4.516;2023-04-24T06:04:59;3.90;;;1.67;;
72904;SDS011;61048;52.162;4.516;2023-04-24T06:07:26;4.13;;;1.55;;
72904;SDS011;61048;52.162;4.516;2023-04-24T06:09:53;2.90;;;0.80;;
72904;SDS011;61048;52.162;4.516;2023-04-24T06:12:20;3.67;;;1.50;;
72904;SDS011;61048;52.162;4.516;2023-04-24T06:14:48;3.50;;;0.80;;
72904;SDS011;61048;52.162;4.516;2023-04-24T06:17:15;5.32;;;1.40;;
72904;SDS011;61048;52.162;4.516;2023-04-24T06:19:42;2.92;;;1.50;;
72904;SDS011;61048;52.162;4.516;2023-04-24T06:22:09;4.25;;;1.70;;
72904;SDS011;61048;52.162;4.516;2023-04-24T06:24:36;2.85;;;1.42;;
72904;SDS011;61048;52.162;4.516;2023-04-24T06:27:02;3.67;;;1.50;;
72904;SDS011;61048;52.162;4.516;2023-04-24T06:29:29;3.53;;;1.65;;
72904;SDS011;61048;52.162;4.516;2023-04-24T06:31:58;4.28;;;1.63;;
72904;SDS011;61048;52.162;4.516;2023-04-24T06:34:25;3.03;;;1.42;;
72904;SDS011;61048;52.162;4.516;2023-04-24T06:36:51;3.17;;;0.70;;
72904;SDS011;61048;52.162;4.516;2023-04-24T06:39:19;3.58;;;1.13;;
72904;SDS011;61048;52.162;4.516;2023-04-24T06:41:46;2.92;;;1.52;;
72904;SDS011;61048;52.162;4.516;2023-04-24T06:44:12;3.58;;;1.55;;
72904;SDS011;61048;52.162;4.516;2023-04-24T06:46:40;3.67;;;1.30;;
72904;SDS011;61048;52.162;4.516;2023-04-24T06:49:08;3.25;;;1.30;;
72904;SDS011;61048;52.162;4.516;2023-04-24T06:51:35;3.90;;;1.23;;
72904;SDS011;61048;52.162;4.516;2023-04-24T06:54:02;3.17;;;1.13;;
72904;SDS011;61048;52.162;4.516;2023-04-24T06:56:29;4.22;;;1.63;;
72904;SDS011;61048;52.162;4.516;2023-04-24T06:58:57;4.10;;;1.80;;
72904;SDS011;61048;52.162;4.516;2023-04-24T07:01:23;4.80;;;1.55;;
72904;SDS011;61048;52.162;4.516;2023-04-24T07:03:50;6.07;;;1.70;;
72904;SDS011;61048;52.162;4.516;2023-04-24T07:06:19;3.67;;;1.20;;
72904;SDS011;61048;52.162;4.516;2023-04-24T07:08:47;4.20;;;0.90;;
72904;SDS011;61048;52.162;4.516;2023-04-24T07:11:14;4.28;;;0.82;;
72904;SDS011;61048;52.162;4.516;2023-04-24T07:13:41;3.38;;;1.52;;
72904;SDS011;61048;52.162;4.516;2023-04-24T07:16:09;3.33;;;1.40;;
72904;SDS011;61048;52.162;4.516;2023-04-24T07:18:36;3.55;;;1.27;;
72904;SDS011;61048;52.162;4.516;2023-04-24T07:21:03;2.70;;;1.00;;
72904;SDS011;61048;52.162;4.516;2023-04-24T07:23:31;3.40;;;1.25;;
72904;SDS011;61048;52.162;4.516;2023-04-24T07:25:58;4.03;;;1.45;;
72904;SDS011;61048;52.162;4.516;2023-04-24T07:28:25;2.55;;;1.13;;
72904;SDS011;61048;52.162;4.516;2023-04-24T07:30:55;4.60;;;1.08;;
72904;SDS011;61048;52.162;4.516;2023-04-24T07:33:23;4.65;;;1.75;;
72904;SDS011;61048;52.162;4.516;2023-04-24T07:35:50;2.88;;;1.35;;
72904;SDS011;61048;52.162;4.516;2023-04-24T07:38:17;2.92;;;1.42;;
72904;SDS011;61048;52.162;4.516;2023-04-24T07:40:47;3.30;;;1.30;;
72904;SDS011;61048;52.162;4.516;2023-04-24T07:43:14;5.30;;;0.90;;
72904;SDS011;61048;52.162;4.516;2023-04-24T07:45:41;2.88;;;1.20;;
72904;SDS011;61048;52.162;4.516;2023-04-24T07:48:08;4.57;;;1.10;;
72904;SDS011;61048;52.162;4.516;2023-04-24T07:50:35;2.28;;;0.90;;
72904;SDS011;61048;52.162;4.516;2023-04-24T07:53:02;4.57;;;1.25;;
72904;SDS011;61048;52.162;4.516;2023-04-24T07:55:29;4.32;;;1.50;;
72904;SDS011;61048;52.162;4.516;2023-04-24T07:57:57;5.13;;;1.85;;
72904;SDS011;61048;52.162;4.516;2023-04-24T08:00:24;3.88;;;0.70;;
72904;SDS011;61048;52.162;4.516;2023-04-24T08:02:51;5.22;;;1.40;;
72904;SDS011;61048;52.162;4.516;2023-04-24T08:05:18;3.33;;;1.05;;
72904;SDS011;61048;52.162;4.516;2023-04-24T08:07:45;2.42;;;0.80;;
72904;SDS011;61048;52.162;4.516;2023-04-24T08:10:14;4.03;;;1.42;;
72904;SDS011;61048;52.162;4.516;2023-04-24T08:12:41;3.05;;;0.75;;
72904;SDS011;61048;52.162;4.516;2023-04-24T08:15:09;3.45;;;1.10;;
72904;SDS011;61048;52.162;4.516;2023-04-24T08:17:36;4.63;;;1.15;;
72904;SDS011;61048;52.162;4.516;2023-04-24T08:20:04;2.47;;;0.47;;
72904;SDS011;61048;52.162;4.516;2023-04-24T08:22:35;3.03;;;1.77;;
72904;SDS011;61048;52.162;4.516;2023-04-24T08:25:02;3.80;;;1.20;;
72904;SDS011;61048;52.162;4.516;2023-04-24T08:27:29;3.10;;;1.33;;
72904;SDS011;61048;52.162;4.516;2023-04-24T08:29:56;4.25;;;0.80;;
72904;SDS011;61048;52.162;4.516;2023-04-24T08:32:25;3.47;;;0.57;;
72904;SDS011;61048;52.162;4.516;2023-04-24T08:34:52;6.05;;;1.52;;
72904;SDS011;61048;52.162;4.516;2023-04-24T08:37:21;4.57;;;0.93;;
72904;SDS011;61048;52.162;4.516;2023-04-24T08:39:48;4.40;;;1.13;;
72904;SDS011;61048;52.162;4.516;2023-04-24T08:42:15;3.00;;;1.10;;
72904;SDS011;61048;52.162;4.516;2023-04-24T08:44:44;3.15;;;2.58;;
72904;SDS011;61048;52.162;4.516;2023-04-24T08:47:11;3.22;;;0.55;;
72904;SDS011;61048;52.162;4.516;2023-04-24T08:49:39;4.18;;;1.58;;
72904;SDS011;61048;52.162;4.516;2023-04-24T08:52:06;2.45;;;1.17;;
72904;SDS011;61048;52.162;4.516;2023-04-24T08:54:34;3.25;;;0.82;;
72904;SDS011;61048;52.162;4.516;2023-04-24T08:57:01;4.85;;;1.23;;
72904;SDS011;61048;52.162;4.516;2023-04-24T08:59:29;3.40;;;1.10;;
72904;SDS011;61048;52.162;4.516;2023-04-24T09:01:57;5.57;;;1.00;;
72904;SDS011;61048;52.162;4.516;2023-04-24T09:04:25;2.97;;;1.10;;
72904;SDS011;61048;52.162;4.516;2023-04-24T09:06:55;3.75;;;0.70;;
72904;SDS011;61048;52.162;4.516;2023-04-24T09:09:24;2.85;;;1.30;;
72904;SDS011;61048;52.162;4.516;2023-04-24T09:11:51;2.40;;;0.90;;
72904;SDS011;61048;52.162;4.516;2023-04-24T09:14:20;3.08;;;0.93;;
72904;SDS011;61048;52.162;4.516;2023-04-24T09:16:48;4.07;;;0.63;;
72904;SDS011;61048;52.162;4.516;2023-04-24T09:19:15;3.83;;;0.90;;
72904;SDS011;61048;52.162;4.516;2023-04-24T09:21:45;2.35;;;0.75;;
72904;SDS011;61048;52.162;4.516;2023-04-24T09:24:16;2.85;;;0.85;;
72904;SDS011;61048;52.162;4.516;2023-04-24T09:26:47;3.83;;;1.13;;
72904;SDS011;61048;52.162;4.516;2023-04-24T09:29:15;2.70;;;1.13;;
72904;SDS011;61048;52.162;4.516;2023-04-24T09:31:42;3.30;;;1.10;;
72904;SDS011;61048;52.162;4.516;2023-04-24T09:34:10;5.13;;;1.13;;
72904;SDS011;61048;52.162;4.516;2023-04-24T09:36:38;3.40;;;0.90;;
72904;SDS011;61048;52.162;4.516;2023-04-24T09:39:06;3.45;;;0.63;;
72904;SDS011;61048;52.162;4.516;2023-04-24T09:41:38;4.78;;;0.75;;
72904;SDS011;61048;52.162;4.516;2023-04-24T09:44:11;2.50;;;0.90;;
72904;SDS011;61048;52.162;4.516;2023-04-24T09:46:38;3.28;;;1.33;;
72904;SDS011;61048;52.162;4.516;2023-04-24T09:49:08;4.22;;;1.20;;
72904;SDS011;61048;52.162;4.516;2023-04-24T09:51:37;3.33;;;1.10;;
72904;SDS011;61048;52.162;4.516;2023-04-24T09:54:05;3.45;;;0.85;;
72904;SDS011;61048;52.162;4.516;2023-04-24T09:56:43;2.92;;;0.93;;
72904;SDS011;61048;52.162;4.516;2023-04-24T09:59:11;2.33;;;0.40;;
72904;SDS011;61048;52.162;4.516;2023-04-24T10:01:38;2.67;;;0.77;;
72904;SDS011;61048;52.162;4.516;2023-04-24T10:04:14;2.47;;;0.50;;
72904;SDS011;61048;52.162;4.516;2023-04-24T10:06:43;2.40;;;0.80;;
72904;SDS011;61048;52.162;4.516;2023-04-24T10:09:10;2.67;;;0.47;;
72904;SDS011;61048;52.162;4.516;2023-04-24T10:11:39;4.85;;;0.90;;
72904;SDS011;61048;52.162;4.516;2023-04-24T10:14:10;4.03;;;0.85;;
72904;SDS011;61048;52.162;4.516;2023-04-24T10:16:39;2.10;;;1.25;;
72904;SDS011;61048;52.162;4.516;2023-04-24T10:19:06;2.60;;;0.80;;
72904;SDS011;61048;52.162;4.516;2023-04-24T10:21:33;3.22;;;0.93;;
72904;SDS011;61048;52.162;4.516;2023-04-24T10:24:02;2.83;;;0.90;;
72904;SDS011;61048;52.162;4.516;2023-04-24T10:26:32;2.17;;;0.65;;
72904;SDS011;61048;52.162;4.516;2023-04-24T10:29:01;2.50;;;0.82;;
72904;SDS011;61048;52.162;4.516;2023-04-24T10:31:30;2.80;;;0.82;;
72904;SDS011;61048;52.162;4.516;2023-04-24T10:33:58;1.85;;;0.30;;
72904;SDS011;61048;52.162;4.516;2023-04-24T10:36:27;1.85;;;0.52;;
72904;SDS011;61048;52.162;4.516;2023-04-24T10:38:57;3.22;;;1.05;;
72904;SDS011;61048;52.162;4.516;2023-04-24T10:41:27;1.77;;;0.80;;
72904;SDS011;61048;52.162;4.516;2023-04-24T10:44:06;2.17;;;0.50;;
72904;SDS011;61048;52.162;4.516;2023-04-24T10:46:36;2.83;;;0.63;;
72904;SDS011;61048;52.162;4.516;2023-04-24T10:49:04;2.85;;;1.02;;
72904;SDS011;61048;52.162;4.516;2023-04-24T10:51:44;3.28;;;0.50;;
72904;SDS011;61048;52.162;4.516;2023-04-24T10:54:21;3.05;;;0.93;;
72904;SDS011;61048;52.162;4.516;2023-04-24T10:56:50;2.10;;;0.50;;
72904;SDS011;61048;52.162;4.516;2023-04-24T10:59:26;3.10;;;0.80;;
72904;SDS011;61048;52.162;4.516;2023-04-24T11:02:02;2.03;;;0.40;;
72904;SDS011;61048;52.162;4.516;2023-04-24T11:04:29;2.53;;;1.00;;
72904;SDS011;61048;52.162;4.516;2023-04-24T11:06:57;1.65;;;0.57;;
72904;SDS011;61048;52.162;4.516;2023-04-24T11:09:26;2.60;;;0.68;;
72904;SDS011;61048;52.162;4.516;2023-04-24T11:12:02;2.17;;;0.75;;
72904;SDS011;61048;52.162;4.516;2023-04-24T11:14:35;2.22;;;0.60;;
72904;SDS011;61048;52.162;4.516;2023-04-24T11:17:28;2.28;;;0.40;;
72904;SDS011;61048;52.162;4.516;2023-04-24T11:20:00;1.83;;;0.68;;
72904;SDS011;61048;52.162;4.516;2023-04-24T11:24:59;3.28;;;0.80;;
72904;SDS011;61048;52.162;4.516;2023-04-24T11:27:28;3.22;;;0.75;;
72904;SDS011;61048;52.162;4.516;2023-04-24T11:30:02;2.53;;;0.90;;
72904;SDS011;61048;52.162;4.516;2023-04-24T11:32:30;2.10;;;0.15;;
72904;SDS011;61048;52.162;4.516;2023-04-24T11:35:02;1.63;;;0.70;;
72904;SDS011;61048;52.162;4.516;2023-04-24T11:37:33;2.97;;;0.80;;
72904;SDS011;61048;52.162;4.516;2023-04-24T11:40:01;3.42;;;0.65;;
72904;SDS011;61048;52.162;4.516;2023-04-24T11:42:33;4.13;;;0.73;;
72904;SDS011;61048;52.162;4.516;2023-04-24T11:45:02;3.53;;;0.93;;
72904;SDS011;61048;52.162;4.516;2023-04-24T11:47:34;3.40;;;0.60;;
72904;SDS011;61048;52.162;4.516;2023-04-24T11:50:01;2.25;;;0.60;;
72904;SDS011;61048;52.162;4.516;2023-04-24T11:52:30;3.92;;;0.85;;
72904;SDS011;61048;52.162;4.516;2023-04-24T11:54:57;2.50;;;0.68;;
72904;SDS011;61048;52.162;4.516;2023-04-24T11:57:25;2.30;;;1.58;;
72904;SDS011;61048;52.162;4.516;2023-04-24T11:59:54;3.00;;;0.82;;
72904;SDS011;61048;52.162;4.516;2023-04-24T12:02:23;3.45;;;0.57;;
72904;SDS011;61048;52.162;4.516;2023-04-24T12:04:50;2.88;;;0.40;;
72904;SDS011;61048;52.162;4.516;2023-04-24T12:07:17;2.20;;;0.45;;
72904;SDS011;61048;52.162;4.516;2023-04-24T12:09:45;3.17;;;0.88;;
72904;SDS011;61048;52.162;4.516;2023-04-24T12:12:12;4.47;;;0.70;;
72904;SDS011;61048;52.162;4.516;2023-04-24T12:14:44;2.70;;;0.43;;
72904;SDS011;61048;52.162;4.516;2023-04-24T12:17:11;4.40;;;1.05;;
72904;SDS011;61048;52.162;4.516;2023-04-24T12:19:44;2.88;;;0.88;;
72904;SDS011;61048;52.162;4.516;2023-04-24T12:22:12;3.63;;;0.47;;
72904;SDS011;61048;52.162;4.516;2023-04-24T12:27:25;3.88;;;1.00;;
72904;SDS011;61048;52.162;4.516;2023-04-24T12:29:53;3.05;;;0.85;;
72904;SDS011;61048;52.162;4.516;2023-04-24T12:32:21;3.22;;;0.90;;
72904;SDS011;61048;52.162;4.516;2023-04-24T12:34:50;2.53;;;0.50;;
72904;SDS011;61048;52.162;4.516;2023-04-24T12:37:17;3.05;;;0.93;;
72904;SDS011;61048;52.162;4.516;2023-04-24T12:39:51;3.40;;;0.95;;
72904;SDS011;61048;52.162;4.516;2023-04-24T12:42:30;5.50;;;1.35;;
72904;SDS011;61048;52.162;4.516;2023-04-24T12:44:58;4.32;;;0.90;;
72904;SDS011;61048;52.162;4.516;2023-04-24T12:47:25;5.88;;;1.33;;
72904;SDS011;61048;52.162;4.516;2023-04-24T12:49:54;2.53;;;0.93;;
72904;SDS011;61048;52.162;4.516;2023-04-24T12:52:21;4.18;;;1.02;;
72904;SDS011;61048;52.162;4.516;2023-04-24T12:54:49;7.35;;;1.40;;
72904;SDS011;61048;52.162;4.516;2023-04-24T12:57:17;4.82;;;1.23;;
72904;SDS011;61048;52.162;4.516;2023-04-24T12:59:45;3.30;;;0.85;;
72904;SDS011;61048;52.162;4.516;2023-04-24T13:02:11;2.85;;;0.70;;
72904;SDS011;61048;52.162;4.516;2023-04-24T13:04:39;2.70;;;1.02;;
72904;SDS011;61048;52.162;4.516;2023-04-24T13:07:07;3.88;;;1.02;;
72904;SDS011;61048;52.162;4.516;2023-04-24T13:09:34;4.70;;;1.48;;
72904;SDS011;61048;52.162;4.516;2023-04-24T13:12:01;4.95;;;1.30;;
72904;SDS011;61048;52.162;4.516;2023-04-24T13:14:30;4.75;;;1.70;;
72904;SDS011;61048;52.162;4.516;2023-04-24T13:16:57;4.38;;;1.00;;
72904;SDS011;61048;52.162;4.516;2023-04-24T13:19:24;5.70;;;0.90;;
72904;SDS011;61048;52.162;4.516;2023-04-24T13:21:51;5.68;;;1.60;;
72904;SDS011;61048;52.162;4.516;2023-04-24T13:24:20;6.40;;;1.52;;
72904;SDS011;61048;52.162;4.516;2023-04-24T13:26:49;3.95;;;1.20;;
72904;SDS011;61048;52.162;4.516;2023-04-24T13:29:16;3.05;;;1.10;;
72904;SDS011;61048;52.162;4.516;2023-04-24T13:31:43;3.88;;;1.42;;
72904;SDS011;61048;52.162;4.516;2023-04-24T13:34:10;3.20;;;1.00;;
72904;SDS011;61048;52.162;4.516;2023-04-24T13:36:37;3.33;;;0.98;;
72904;SDS011;61048;52.162;4.516;2023-04-24T13:39:04;2.72;;;0.55;;
72904;SDS011;61048;52.162;4.516;2023-04-24T13:41:33;4.97;;;1.35;;
72904;SDS011;61048;52.162;4.516;2023-04-24T13:44:01;4.15;;;1.17;;
72904;SDS011;61048;52.162;4.516;2023-04-24T13:46:28;3.95;;;1.15;;
72904;SDS011;61048;52.162;4.516;2023-04-24T13:48:55;3.63;;;1.35;;
72904;SDS011;61048;52.162;4.516;2023-04-24T13:51:23;3.25;;;0.93;;
72904;SDS011;61048;52.162;4.516;2023-04-24T13:53:51;5.55;;;1.23;;
72904;SDS011;61048;52.162;4.516;2023-04-24T13:56:18;3.78;;;2.17;;
72904;SDS011;61048;52.162;4.516;2023-04-24T13:58:47;4.45;;;1.00;;
72904;SDS011;61048;52.162;4.516;2023-04-24T14:01:14;3.35;;;0.75;;
72904;SDS011;61048;52.162;4.516;2023-04-24T14:03:41;3.53;;;1.00;;
72904;SDS011;61048;52.162;4.516;2023-04-24T14:06:09;4.25;;;1.20;;
72904;SDS011;61048;52.162;4.516;2023-04-24T14:08:36;3.30;;;1.20;;
72904;SDS011;61048;52.162;4.516;2023-04-24T14:11:03;4.32;;;1.80;;
72904;SDS011;61048;52.162;4.516;2023-04-24T14:13:30;3.90;;;1.13;;
72904;SDS011;61048;52.162;4.516;2023-04-24T14:15:59;4.22;;;0.98;;
72904;SDS011;61048;52.162;4.516;2023-04-24T14:18:26;5.03;;;1.10;;
72904;SDS011;61048;52.162;4.516;2023-04-24T14:20:53;4.68;;;1.35;;
72904;SDS011;61048;52.162;4.516;2023-04-24T14:23:19;4.93;;;1.25;;
72904;SDS011;61048;52.162;4.516;2023-04-24T14:25:46;4.03;;;1.60;;
72904;SDS011;61048;52.162;4.516;2023-04-24T14:28:16;6.25;;;1.20;;
72904;SDS011;61048;52.162;4.516;2023-04-24T14:30:43;4.15;;;1.38;;
72904;SDS011;61048;52.162;4.516;2023-04-24T14:33:12;4.57;;;1.50;;
72904;SDS011;61048;52.162;4.516;2023-04-24T14:35:39;4.53;;;1.33;;
72904;SDS011;61048;52.162;4.516;2023-04-24T14:38:07;4.05;;;1.17;;
72904;SDS011;61048;52.162;4.516;2023-04-24T14:40:34;5.30;;;1.52;;
72904;SDS011;61048;52.162;4.516;2023-04-24T14:43:01;4.68;;;1.38;;
72904;SDS011;61048;52.162;4.516;2023-04-24T14:45:28;4.13;;;1.45;;
72904;SDS011;61048;52.162;4.516;2023-04-24T14:47:55;2.97;;;1.20;;
72904;SDS011;61048;52.162;4.516;2023-04-24T14:50:25;4.57;;;1.30;;
72904;SDS011;61048;52.162;4.516;2023-04-24T14:52:53;3.50;;;0.85;;
72904;SDS011;61048;52.162;4.516;2023-04-24T14:55:20;4.10;;;1.30;;
72904;SDS011;61048;52.162;4.516;2023-04-24T14:57:47;3.75;;;1.00;;